sensor_id;sensor_type;location;lat;lon;timestamp;P1;durP1;ratioP1;P2;durP2;ratioP2
75628;SDS011;64213;46.452;16.994;2023-10-31T00:02:45;7.87;;;2.50;;
75628;SDS011;64213;46.452;16.994;2023-10-31T00:05:47;8.25;;;2.37;;
75628;SDS011;64213;46.452;16.994;2023-10-31T00:08:50;8.40;;;1.80;;
75628;SDS011;64213;46.452;16.994;2023-10-31T00:11:53;10.30;;;2.25;;
75628;SDS011;64213;46.452;16.994;2023-10-31T00:14:55;8.80;;;2.30;;
75628;SDS011;64213;46.452;16.994;2023-10-31T00:17:58;7.37;;;2.07;;
75628;SDS011;64213;46.452;16.994;2023-10-31T00:21:00;7.87;;;2.10;;
75628;SDS011;64213;46.452;16.994;2023-10-31T00:24:03;9.30;;;2.03;;
75628;SDS011;64213;46.452;16.994;2023-10-31T00:27:05;8.63;;;1.75;;
75628;SDS011;64213;46.452;16.994;2023-10-31T00:30:08;8.43;;;2.00;;
75628;SDS011;64213;46.452;16.994;2023-10-31T00:33:11;6.60;;;1.57;;
75628;SDS011;64213;46.452;16.994;2023-10-31T00:36:13;8.43;;;1.70;;
75628;SDS011;64213;46.452;16.994;2023-10-31T00:39:16;7.75;;;1.83;;
75628;SDS011;64213;46.452;16.994;2023-10-31T00:42:18;7.35;;;1.70;;
75628;SDS011;64213;46.452;16.994;2023-10-31T00:45:21;10.23;;;1.60;;
75628;SDS011;64213;46.452;16.994;2023-10-31T00:48:23;7.53;;;1.50;;
75628;SDS011;64213;46.452;16.994;2023-10-31T00:51:26;8.38;;;1.95;;
75628;SDS011;64213;46.452;16.994;2023-10-31T00:54:28;7.53;;;2.12;;
75628;SDS011;64213;46.452;16.994;2023-10-31T00:57:30;7.93;;;1.77;;
75628;SDS011;64213;46.452;16.994;2023-10-31T01:00:33;8.32;;;2.05;;
75628;SDS011;64213;46.452;16.994;2023-10-31T01:03:36;7.73;;;1.77;;
75628;SDS011;64213;46.452;16.994;2023-10-31T01:06:42;7.45;;;2.20;;
75628;SDS011;64213;46.452;16.994;2023-10-31T01:09:46;9.27;;;2.37;;
75628;SDS011;64213;46.452;16.994;2023-10-31T01:12:48;9.02;;;1.95;;
75628;SDS011;64213;46.452;16.994;2023-10-31T01:15:51;7.93;;;2.12;;
75628;SDS011;64213;46.452;16.994;2023-10-31T01:18:53;7.20;;;1.83;;
75628;SDS011;64213;46.452;16.994;2023-10-31T01:21:56;7.82;;;2.08;;
75628;SDS011;64213;46.452;16.994;2023-10-31T01:24:58;8.35;;;2.22;;
75628;SDS011;64213;46.452;16.994;2023-10-31T01:28:00;8.27;;;2.30;;
75628;SDS011;64213;46.452;16.994;2023-10-31T01:31:03;8.05;;;1.73;;
75628;SDS011;64213;46.452;16.994;2023-10-31T01:34:05;6.93;;;1.60;;
75628;SDS011;64213;46.452;16.994;2023-10-31T01:37:08;7.25;;;2.17;;
75628;SDS011;64213;46.452;16.994;2023-10-31T01:40:14;9.95;;;2.22;;
75628;SDS011;64213;46.452;16.994;2023-10-31T01:43:32;8.35;;;1.90;;
75628;SDS011;64213;46.452;16.994;2023-10-31T01:46:36;7.18;;;1.87;;
75628;SDS011;64213;46.452;16.994;2023-10-31T01:49:38;8.23;;;1.80;;
75628;SDS011;64213;46.452;16.994;2023-10-31T01:52:41;8.25;;;1.80;;
75628;SDS011;64213;46.452;16.994;2023-10-31T01:55:44;7.72;;;1.75;;
75628;SDS011;64213;46.452;16.994;2023-10-31T01:58:49;8.52;;;1.70;;
75628;SDS011;64213;46.452;16.994;2023-10-31T02:01:52;10.38;;;2.00;;
75628;SDS011;64213;46.452;16.994;2023-10-31T02:04:55;8.53;;;1.87;;
75628;SDS011;64213;46.452;16.994;2023-10-31T02:07:58;7.05;;;1.73;;
75628;SDS011;64213;46.452;16.994;2023-10-31T02:11:00;8.58;;;1.97;;
75628;SDS011;64213;46.452;16.994;2023-10-31T02:14:03;8.50;;;2.33;;
75628;SDS011;64213;46.452;16.994;2023-10-31T02:17:06;9.27;;;2.25;;
75628;SDS011;64213;46.452;16.994;2023-10-31T02:20:08;7.77;;;1.90;;
75628;SDS011;64213;46.452;16.994;2023-10-31T02:23:11;8.27;;;1.95;;
75628;SDS011;64213;46.452;16.994;2023-10-31T02:26:14;8.07;;;1.85;;
75628;SDS011;64213;46.452;16.994;2023-10-31T02:29:16;7.12;;;2.00;;
75628;SDS011;64213;46.452;16.994;2023-10-31T02:32:19;7.20;;;2.00;;
75628;SDS011;64213;46.452;16.994;2023-10-31T02:35:21;10.27;;;2.33;;
75628;SDS011;64213;46.452;16.994;2023-10-31T02:38:24;6.47;;;1.60;;
75628;SDS011;64213;46.452;16.994;2023-10-31T02:41:26;7.60;;;1.70;;
75628;SDS011;64213;46.452;16.994;2023-10-31T02:44:28;8.90;;;1.85;;
75628;SDS011;64213;46.452;16.994;2023-10-31T02:47:31;7.93;;;2.15;;
75628;SDS011;64213;46.452;16.994;2023-10-31T02:50:33;7.13;;;1.83;;
75628;SDS011;64213;46.452;16.994;2023-10-31T02:53:36;8.02;;;1.90;;
75628;SDS011;64213;46.452;16.994;2023-10-31T02:56:39;7.95;;;2.00;;
75628;SDS011;64213;46.452;16.994;2023-10-31T02:59:41;14.07;;;2.47;;
75628;SDS011;64213;46.452;16.994;2023-10-31T03:02:44;7.68;;;1.95;;
75628;SDS011;64213;46.452;16.994;2023-10-31T03:05:47;6.97;;;1.87;;
75628;SDS011;64213;46.452;16.994;2023-10-31T03:08:49;8.98;;;2.10;;
75628;SDS011;64213;46.452;16.994;2023-10-31T03:11:52;8.00;;;1.90;;
75628;SDS011;64213;46.452;16.994;2023-10-31T03:14:55;8.45;;;2.20;;
75628;SDS011;64213;46.452;16.994;2023-10-31T03:17:57;8.40;;;1.92;;
75628;SDS011;64213;46.452;16.994;2023-10-31T03:21:00;7.00;;;1.90;;
75628;SDS011;64213;46.452;16.994;2023-10-31T03:24:02;6.82;;;1.70;;
75628;SDS011;64213;46.452;16.994;2023-10-31T03:27:05;7.82;;;2.00;;
75628;SDS011;64213;46.452;16.994;2023-10-31T03:30:08;8.30;;;1.87;;
75628;SDS011;64213;46.452;16.994;2023-10-31T03:33:11;9.00;;;2.00;;
75628;SDS011;64213;46.452;16.994;2023-10-31T03:36:14;7.90;;;2.13;;
75628;SDS011;64213;46.452;16.994;2023-10-31T03:39:16;6.78;;;1.50;;
75628;SDS011;64213;46.452;16.994;2023-10-31T03:42:19;8.63;;;1.30;;
75628;SDS011;64213;46.452;16.994;2023-10-31T03:45:21;6.05;;;1.30;;
75628;SDS011;64213;46.452;16.994;2023-10-31T03:48:24;6.30;;;1.40;;
75628;SDS011;64213;46.452;16.994;2023-10-31T03:51:26;7.50;;;1.60;;
75628;SDS011;64213;46.452;16.994;2023-10-31T03:54:29;8.45;;;2.17;;
75628;SDS011;64213;46.452;16.994;2023-10-31T03:57:31;8.70;;;1.85;;
75628;SDS011;64213;46.452;16.994;2023-10-31T04:00:34;8.80;;;2.28;;
75628;SDS011;64213;46.452;16.994;2023-10-31T04:03:36;8.70;;;2.25;;
75628;SDS011;64213;46.452;16.994;2023-10-31T04:06:39;9.07;;;1.80;;
75628;SDS011;64213;46.452;16.994;2023-10-31T04:09:43;9.77;;;2.15;;
75628;SDS011;64213;46.452;16.994;2023-10-31T04:12:45;9.27;;;2.00;;
75628;SDS011;64213;46.452;16.994;2023-10-31T04:15:48;7.80;;;2.10;;
75628;SDS011;64213;46.452;16.994;2023-10-31T04:18:51;8.40;;;1.85;;
75628;SDS011;64213;46.452;16.994;2023-10-31T04:21:53;7.93;;;1.93;;
75628;SDS011;64213;46.452;16.994;2023-10-31T04:24:56;10.02;;;1.35;;
75628;SDS011;64213;46.452;16.994;2023-10-31T04:27:59;5.72;;;1.10;;
75628;SDS011;64213;46.452;16.994;2023-10-31T04:31:02;8.38;;;1.23;;
75628;SDS011;64213;46.452;16.994;2023-10-31T04:34:05;7.05;;;1.27;;
75628;SDS011;64213;46.452;16.994;2023-10-31T04:37:08;6.97;;;1.03;;
75628;SDS011;64213;46.452;16.994;2023-10-31T04:40:11;7.28;;;1.15;;
75628;SDS011;64213;46.452;16.994;2023-10-31T04:43:14;6.55;;;1.12;;
75628;SDS011;64213;46.452;16.994;2023-10-31T04:46:17;6.47;;;1.05;;
75628;SDS011;64213;46.452;16.994;2023-10-31T04:49:19;6.87;;;1.25;;
75628;SDS011;64213;46.452;16.994;2023-10-31T04:52:22;6.47;;;1.37;;
75628;SDS011;64213;46.452;16.994;2023-10-31T04:55:28;8.15;;;1.70;;
75628;SDS011;64213;46.452;16.994;2023-10-31T04:58:30;6.82;;;1.40;;
75628;SDS011;64213;46.452;16.994;2023-10-31T05:01:33;6.20;;;1.42;;
75628;SDS011;64213;46.452;16.994;2023-10-31T05:04:38;7.47;;;1.83;;
75628;SDS011;64213;46.452;16.994;2023-10-31T05:07:44;6.13;;;1.10;;
75628;SDS011;64213;46.452;16.994;2023-10-31T05:10:47;8.73;;;1.80;;
75628;SDS011;64213;46.452;16.994;2023-10-31T05:13:50;3.95;;;0.60;;
75628;SDS011;64213;46.452;16.994;2023-10-31T05:16:52;6.22;;;1.30;;
75628;SDS011;64213;46.452;16.994;2023-10-31T05:19:55;7.82;;;1.60;;
75628;SDS011;64213;46.452;16.994;2023-10-31T05:22:57;5.73;;;1.83;;
75628;SDS011;64213;46.452;16.994;2023-10-31T05:26:00;9.98;;;3.08;;
75628;SDS011;64213;46.452;16.994;2023-10-31T05:29:07;11.43;;;3.58;;
75628;SDS011;64213;46.452;16.994;2023-10-31T05:32:09;8.07;;;1.90;;
75628;SDS011;64213;46.452;16.994;2023-10-31T05:35:12;8.27;;;2.58;;
75628;SDS011;64213;46.452;16.994;2023-10-31T05:38:15;7.37;;;1.70;;
75628;SDS011;64213;46.452;16.994;2023-10-31T05:41:17;8.55;;;1.87;;
75628;SDS011;64213;46.452;16.994;2023-10-31T05:44:20;8.68;;;1.58;;
75628;SDS011;64213;46.452;16.994;2023-10-31T05:47:22;9.95;;;1.55;;
75628;SDS011;64213;46.452;16.994;2023-10-31T05:50:25;9.55;;;1.30;;
75628;SDS011;64213;46.452;16.994;2023-10-31T05:53:28;7.03;;;1.60;;
75628;SDS011;64213;46.452;16.994;2023-10-31T05:56:30;9.02;;;1.45;;
75628;SDS011;64213;46.452;16.994;2023-10-31T05:59:33;5.43;;;1.20;;
75628;SDS011;64213;46.452;16.994;2023-10-31T06:02:35;7.35;;;1.52;;
75628;SDS011;64213;46.452;16.994;2023-10-31T06:05:38;8.55;;;1.40;;
75628;SDS011;64213;46.452;16.994;2023-10-31T06:08:42;9.10;;;1.70;;
75628;SDS011;64213;46.452;16.994;2023-10-31T06:11:45;10.63;;;1.80;;
75628;SDS011;64213;46.452;16.994;2023-10-31T06:14:49;7.95;;;1.45;;
75628;SDS011;64213;46.452;16.994;2023-10-31T06:17:51;7.87;;;1.48;;
75628;SDS011;64213;46.452;16.994;2023-10-31T06:20:54;6.20;;;1.45;;
75628;SDS011;64213;46.452;16.994;2023-10-31T06:23:56;10.90;;;4.23;;
75628;SDS011;64213;46.452;16.994;2023-10-31T06:26:59;11.18;;;2.83;;
75628;SDS011;64213;46.452;16.994;2023-10-31T06:30:02;8.50;;;1.80;;
75628;SDS011;64213;46.452;16.994;2023-10-31T06:33:21;8.60;;;2.47;;
75628;SDS011;64213;46.452;16.994;2023-10-31T06:36:24;10.48;;;2.55;;
75628;SDS011;64213;46.452;16.994;2023-10-31T06:39:26;9.93;;;2.67;;
75628;SDS011;64213;46.452;16.994;2023-10-31T06:42:29;7.90;;;1.65;;
75628;SDS011;64213;46.452;16.994;2023-10-31T06:45:32;6.87;;;1.60;;
75628;SDS011;64213;46.452;16.994;2023-10-31T06:48:34;8.13;;;1.27;;
75628;SDS011;64213;46.452;16.994;2023-10-31T06:51:37;6.25;;;1.10;;
75628;SDS011;64213;46.452;16.994;2023-10-31T06:54:39;7.73;;;1.83;;
75628;SDS011;64213;46.452;16.994;2023-10-31T06:57:42;8.55;;;1.77;;
75628;SDS011;64213;46.452;16.994;2023-10-31T07:00:45;7.97;;;1.62;;
75628;SDS011;64213;46.452;16.994;2023-10-31T07:03:48;8.65;;;1.83;;
75628;SDS011;64213;46.452;16.994;2023-10-31T07:06:50;8.00;;;2.10;;
75628;SDS011;64213;46.452;16.994;2023-10-31T07:09:58;8.07;;;2.00;;
75628;SDS011;64213;46.452;16.994;2023-10-31T07:13:01;7.28;;;1.70;;
75628;SDS011;64213;46.452;16.994;2023-10-31T07:16:03;7.82;;;1.60;;
75628;SDS011;64213;46.452;16.994;2023-10-31T07:19:06;7.47;;;1.87;;
75628;SDS011;64213;46.452;16.994;2023-10-31T07:22:09;9.43;;;2.15;;
75628;SDS011;64213;46.452;16.994;2023-10-31T07:25:11;12.70;;;2.30;;
75628;SDS011;64213;46.452;16.994;2023-10-31T07:28:13;7.97;;;1.90;;
75628;SDS011;64213;46.452;16.994;2023-10-31T07:31:16;11.07;;;2.05;;
75628;SDS011;64213;46.452;16.994;2023-10-31T07:34:18;8.45;;;2.10;;
75628;SDS011;64213;46.452;16.994;2023-10-31T07:37:21;13.25;;;3.45;;
75628;SDS011;64213;46.452;16.994;2023-10-31T07:40:23;11.20;;;2.70;;
75628;SDS011;64213;46.452;16.994;2023-10-31T07:43:25;6.80;;;1.90;;
75628;SDS011;64213;46.452;16.994;2023-10-31T07:46:28;11.77;;;2.05;;
75628;SDS011;64213;46.452;16.994;2023-10-31T07:49:31;9.20;;;2.10;;
75628;SDS011;64213;46.452;16.994;2023-10-31T07:52:33;15.07;;;5.68;;
75628;SDS011;64213;46.452;16.994;2023-10-31T07:55:36;10.67;;;2.77;;
75628;SDS011;64213;46.452;16.994;2023-10-31T07:58:38;7.25;;;1.90;;
75628;SDS011;64213;46.452;16.994;2023-10-31T08:01:40;8.75;;;2.17;;
75628;SDS011;64213;46.452;16.994;2023-10-31T08:04:43;8.27;;;2.08;;
75628;SDS011;64213;46.452;16.994;2023-10-31T08:07:45;8.38;;;2.42;;
75628;SDS011;64213;46.452;16.994;2023-10-31T08:10:48;10.33;;;2.30;;
75628;SDS011;64213;46.452;16.994;2023-10-31T08:13:50;15.40;;;2.87;;
75628;SDS011;64213;46.452;16.994;2023-10-31T08:16:52;11.52;;;2.62;;
75628;SDS011;64213;46.452;16.994;2023-10-31T08:19:55;8.52;;;1.87;;
75628;SDS011;64213;46.452;16.994;2023-10-31T08:22:57;7.78;;;1.80;;
75628;SDS011;64213;46.452;16.994;2023-10-31T08:25:59;10.80;;;2.10;;
75628;SDS011;64213;46.452;16.994;2023-10-31T08:29:02;11.65;;;2.62;;
75628;SDS011;64213;46.452;16.994;2023-10-31T08:32:05;9.52;;;1.80;;
75628;SDS011;64213;46.452;16.994;2023-10-31T08:35:08;8.38;;;2.28;;
75628;SDS011;64213;46.452;16.994;2023-10-31T08:38:10;9.05;;;2.40;;
75628;SDS011;64213;46.452;16.994;2023-10-31T08:41:27;10.27;;;2.47;;
75628;SDS011;64213;46.452;16.994;2023-10-31T08:44:29;9.70;;;2.30;;
75628;SDS011;64213;46.452;16.994;2023-10-31T08:47:32;11.27;;;2.58;;
75628;SDS011;64213;46.452;16.994;2023-10-31T08:50:35;10.05;;;2.50;;
75628;SDS011;64213;46.452;16.994;2023-10-31T08:53:37;11.15;;;3.62;;
75628;SDS011;64213;46.452;16.994;2023-10-31T08:56:40;16.37;;;6.40;;
75628;SDS011;64213;46.452;16.994;2023-10-31T08:59:42;11.30;;;5.65;;
75628;SDS011;64213;46.452;16.994;2023-10-31T09:02:45;14.90;;;6.70;;
75628;SDS011;64213;46.452;16.994;2023-10-31T09:05:48;14.27;;;5.97;;
75628;SDS011;64213;46.452;16.994;2023-10-31T09:08:50;16.10;;;6.20;;
75628;SDS011;64213;46.452;16.994;2023-10-31T09:11:53;15.53;;;4.93;;
75628;SDS011;64213;46.452;16.994;2023-10-31T09:14:55;13.32;;;4.60;;
75628;SDS011;64213;46.452;16.994;2023-10-31T09:17:58;11.35;;;3.65;;
75628;SDS011;64213;46.452;16.994;2023-10-31T09:21:01;11.60;;;3.95;;
75628;SDS011;64213;46.452;16.994;2023-10-31T09:24:03;11.57;;;3.83;;
75628;SDS011;64213;46.452;16.994;2023-10-31T09:27:06;14.37;;;4.43;;
75628;SDS011;64213;46.452;16.994;2023-10-31T09:30:08;14.35;;;4.57;;
75628;SDS011;64213;46.452;16.994;2023-10-31T09:33:11;12.60;;;4.03;;
75628;SDS011;64213;46.452;16.994;2023-10-31T09:36:14;11.68;;;3.58;;
75628;SDS011;64213;46.452;16.994;2023-10-31T09:39:16;11.38;;;3.40;;
75628;SDS011;64213;46.452;16.994;2023-10-31T09:42:18;7.27;;;2.00;;
75628;SDS011;64213;46.452;16.994;2023-10-31T09:45:21;10.70;;;2.60;;
75628;SDS011;64213;46.452;16.994;2023-10-31T09:48:24;10.00;;;2.80;;
75628;SDS011;64213;46.452;16.994;2023-10-31T09:51:27;12.30;;;2.62;;
75628;SDS011;64213;46.452;16.994;2023-10-31T09:54:30;8.70;;;2.72;;
75628;SDS011;64213;46.452;16.994;2023-10-31T09:57:33;8.93;;;2.50;;
75628;SDS011;64213;46.452;16.994;2023-10-31T10:00:35;7.93;;;2.40;;
75628;SDS011;64213;46.452;16.994;2023-10-31T10:03:42;9.27;;;2.83;;
75628;SDS011;64213;46.452;16.994;2023-10-31T10:06:52;8.98;;;2.22;;
75628;SDS011;64213;46.452;16.994;2023-10-31T10:10:00;12.18;;;2.80;;
75628;SDS011;64213;46.452;16.994;2023-10-31T10:13:02;7.57;;;1.00;;
75628;SDS011;64213;46.452;16.994;2023-10-31T10:16:05;3.80;;;0.50;;
75628;SDS011;64213;46.452;16.994;2023-10-31T10:19:26;6.22;;;0.85;;
75628;SDS011;64213;46.452;16.994;2023-10-31T10:22:30;5.18;;;0.50;;
75628;SDS011;64213;46.452;16.994;2023-10-31T10:25:32;12.60;;;0.77;;
75628;SDS011;64213;46.452;16.994;2023-10-31T10:28:46;4.67;;;0.80;;
75628;SDS011;64213;46.452;16.994;2023-10-31T10:31:49;6.40;;;0.60;;
75628;SDS011;64213;46.452;16.994;2023-10-31T10:34:52;7.22;;;0.70;;
75628;SDS011;64213;46.452;16.994;2023-10-31T10:37:54;3.45;;;0.62;;
75628;SDS011;64213;46.452;16.994;2023-10-31T10:40:59;8.03;;;0.70;;
75628;SDS011;64213;46.452;16.994;2023-10-31T10:44:07;2.30;;;0.40;;
75628;SDS011;64213;46.452;16.994;2023-10-31T10:47:11;1.83;;;0.30;;
75628;SDS011;64213;46.452;16.994;2023-10-31T10:50:14;2.67;;;0.30;;
75628;SDS011;64213;46.452;16.994;2023-10-31T10:56:33;3.70;;;0.50;;
75628;SDS011;64213;46.452;16.994;2023-10-31T10:59:42;3.07;;;0.50;;
75628;SDS011;64213;46.452;16.994;2023-10-31T11:02:52;4.37;;;0.40;;
75628;SDS011;64213;46.452;16.994;2023-10-31T11:05:56;3.37;;;0.45;;
75628;SDS011;64213;46.452;16.994;2023-10-31T11:08:59;2.55;;;0.30;;
75628;SDS011;64213;46.452;16.994;2023-10-31T11:12:02;4.57;;;0.77;;
75628;SDS011;64213;46.452;16.994;2023-10-31T11:15:05;2.97;;;0.60;;
75628;SDS011;64213;46.452;16.994;2023-10-31T11:18:10;4.37;;;0.50;;
75628;SDS011;64213;46.452;16.994;2023-10-31T11:21:13;4.07;;;0.80;;
75628;SDS011;64213;46.452;16.994;2023-10-31T11:24:15;4.78;;;0.65;;
75628;SDS011;64213;46.452;16.994;2023-10-31T11:27:18;5.93;;;0.67;;
75628;SDS011;64213;46.452;16.994;2023-10-31T11:33:34;6.43;;;0.68;;
75628;SDS011;64213;46.452;16.994;2023-10-31T11:36:41;4.43;;;0.50;;
75628;SDS011;64213;46.452;16.994;2023-10-31T11:40:08;7.95;;;0.77;;
75628;SDS011;64213;46.452;16.994;2023-10-31T11:43:34;4.43;;;0.60;;
75628;SDS011;64213;46.452;16.994;2023-10-31T11:46:38;6.23;;;1.00;;
75628;SDS011;64213;46.452;16.994;2023-10-31T11:49:48;9.90;;;2.40;;
75628;SDS011;64213;46.452;16.994;2023-10-31T11:53:01;5.95;;;1.08;;
75628;SDS011;64213;46.452;16.994;2023-10-31T11:56:16;4.65;;;0.73;;
75628;SDS011;64213;46.452;16.994;2023-10-31T11:59:19;6.67;;;1.53;;
75628;SDS011;64213;46.452;16.994;2023-10-31T12:02:21;5.13;;;1.00;;
75628;SDS011;64213;46.452;16.994;2023-10-31T12:05:24;7.07;;;0.80;;
75628;SDS011;64213;46.452;16.994;2023-10-31T12:08:30;7.32;;;1.37;;
75628;SDS011;64213;46.452;16.994;2023-10-31T12:11:43;7.82;;;1.52;;
75628;SDS011;64213;46.452;16.994;2023-10-31T12:14:47;7.13;;;1.47;;
75628;SDS011;64213;46.452;16.994;2023-10-31T12:17:50;8.00;;;1.60;;
75628;SDS011;64213;46.452;16.994;2023-10-31T12:20:52;6.62;;;1.20;;
75628;SDS011;64213;46.452;16.994;2023-10-31T12:24:01;7.35;;;1.30;;
75628;SDS011;64213;46.452;16.994;2023-10-31T12:27:08;7.53;;;1.50;;
75628;SDS011;64213;46.452;16.994;2023-10-31T12:30:14;7.43;;;1.90;;
75628;SDS011;64213;46.452;16.994;2023-10-31T12:33:21;11.80;;;5.60;;
75628;SDS011;64213;46.452;16.994;2023-10-31T12:36:26;7.53;;;2.00;;
75628;SDS011;64213;46.452;16.994;2023-10-31T12:39:29;8.48;;;1.52;;
75628;SDS011;64213;46.452;16.994;2023-10-31T12:42:32;7.12;;;1.50;;
75628;SDS011;64213;46.452;16.994;2023-10-31T12:45:35;9.63;;;2.05;;
75628;SDS011;64213;46.452;16.994;2023-10-31T12:48:38;7.53;;;1.40;;
75628;SDS011;64213;46.452;16.994;2023-10-31T12:54:59;5.20;;;1.20;;
75628;SDS011;64213;46.452;16.994;2023-10-31T12:58:20;7.10;;;1.00;;
75628;SDS011;64213;46.452;16.994;2023-10-31T13:01:23;6.80;;;0.80;;
75628;SDS011;64213;46.452;16.994;2023-10-31T13:04:29;6.37;;;1.13;;
75628;SDS011;64213;46.452;16.994;2023-10-31T13:07:32;6.82;;;1.00;;
75628;SDS011;64213;46.452;16.994;2023-10-31T13:10:36;4.68;;;0.85;;
75628;SDS011;64213;46.452;16.994;2023-10-31T13:13:51;6.32;;;0.82;;
75628;SDS011;64213;46.452;16.994;2023-10-31T13:16:55;5.43;;;1.00;;
75628;SDS011;64213;46.452;16.994;2023-10-31T13:19:57;5.80;;;1.00;;
75628;SDS011;64213;46.452;16.994;2023-10-31T13:22:59;5.03;;;1.02;;
75628;SDS011;64213;46.452;16.994;2023-10-31T13:26:05;6.15;;;1.17;;
75628;SDS011;64213;46.452;16.994;2023-10-31T13:29:07;3.10;;;0.50;;
75628;SDS011;64213;46.452;16.994;2023-10-31T13:32:09;3.17;;;0.50;;
75628;SDS011;64213;46.452;16.994;2023-10-31T13:35:12;4.60;;;0.50;;
75628;SDS011;64213;46.452;16.994;2023-10-31T13:38:16;3.95;;;0.65;;
75628;SDS011;64213;46.452;16.994;2023-10-31T13:41:20;2.75;;;0.40;;
75628;SDS011;64213;46.452;16.994;2023-10-31T13:44:23;3.55;;;0.50;;
75628;SDS011;64213;46.452;16.994;2023-10-31T13:47:26;3.30;;;0.60;;
75628;SDS011;64213;46.452;16.994;2023-10-31T13:50:28;3.00;;;0.43;;
75628;SDS011;64213;46.452;16.994;2023-10-31T13:53:31;3.15;;;0.50;;
75628;SDS011;64213;46.452;16.994;2023-10-31T13:56:33;4.18;;;0.40;;
75628;SDS011;64213;46.452;16.994;2023-10-31T13:59:37;4.25;;;0.60;;
75628;SDS011;64213;46.452;16.994;2023-10-31T14:02:39;2.67;;;0.40;;
75628;SDS011;64213;46.452;16.994;2023-10-31T14:05:42;2.47;;;0.40;;
75628;SDS011;64213;46.452;16.994;2023-10-31T14:08:45;3.05;;;0.30;;
75628;SDS011;64213;46.452;16.994;2023-10-31T14:11:48;2.10;;;0.20;;
75628;SDS011;64213;46.452;16.994;2023-10-31T14:14:51;2.33;;;0.40;;
75628;SDS011;64213;46.452;16.994;2023-10-31T14:17:53;3.47;;;0.40;;
75628;SDS011;64213;46.452;16.994;2023-10-31T14:20:56;2.90;;;0.30;;
75628;SDS011;64213;46.452;16.994;2023-10-31T14:23:59;3.25;;;0.43;;
75628;SDS011;64213;46.452;16.994;2023-10-31T14:27:11;2.03;;;0.30;;
75628;SDS011;64213;46.452;16.994;2023-10-31T14:30:14;2.65;;;0.20;;
75628;SDS011;64213;46.452;16.994;2023-10-31T14:33:16;1.70;;;0.30;;
75628;SDS011;64213;46.452;16.994;2023-10-31T14:36:19;2.20;;;0.30;;
75628;SDS011;64213;46.452;16.994;2023-10-31T14:39:22;3.28;;;0.30;;
75628;SDS011;64213;46.452;16.994;2023-10-31T14:42:24;2.70;;;0.40;;
75628;SDS011;64213;46.452;16.994;2023-10-31T14:45:27;3.80;;;0.50;;
75628;SDS011;64213;46.452;16.994;2023-10-31T14:48:29;3.13;;;0.50;;
75628;SDS011;64213;46.452;16.994;2023-10-31T14:51:34;1.90;;;0.30;;
75628;SDS011;64213;46.452;16.994;2023-10-31T14:54:36;2.40;;;0.30;;
75628;SDS011;64213;46.452;16.994;2023-10-31T14:57:39;2.58;;;0.37;;
75628;SDS011;64213;46.452;16.994;2023-10-31T15:00:41;2.92;;;0.40;;
75628;SDS011;64213;46.452;16.994;2023-10-31T15:03:44;2.50;;;0.40;;
75628;SDS011;64213;46.452;16.994;2023-10-31T15:06:46;3.00;;;0.50;;
75628;SDS011;64213;46.452;16.994;2023-10-31T15:09:49;3.17;;;0.47;;
75628;SDS011;64213;46.452;16.994;2023-10-31T15:12:52;5.75;;;0.95;;
75628;SDS011;64213;46.452;16.994;2023-10-31T15:15:54;31.37;;;8.20;;
75628;SDS011;64213;46.452;16.994;2023-10-31T15:18:57;4.47;;;0.80;;
75628;SDS011;64213;46.452;16.994;2023-10-31T15:22:01;2.00;;;0.30;;
75628;SDS011;64213;46.452;16.994;2023-10-31T15:25:03;4.22;;;0.60;;
75628;SDS011;64213;46.452;16.994;2023-10-31T15:28:06;3.37;;;0.45;;
75628;SDS011;64213;46.452;16.994;2023-10-31T15:31:09;4.50;;;0.32;;
75628;SDS011;64213;46.452;16.994;2023-10-31T15:34:12;3.53;;;0.40;;
75628;SDS011;64213;46.452;16.994;2023-10-31T15:37:15;2.53;;;0.20;;
75628;SDS011;64213;46.452;16.994;2023-10-31T15:40:17;1.70;;;0.30;;
75628;SDS011;64213;46.452;16.994;2023-10-31T15:43:20;3.50;;;0.68;;
75628;SDS011;64213;46.452;16.994;2023-10-31T15:46:22;2.80;;;0.30;;
75628;SDS011;64213;46.452;16.994;2023-10-31T15:49:24;2.30;;;0.20;;
75628;SDS011;64213;46.452;16.994;2023-10-31T15:52:27;3.20;;;0.50;;
75628;SDS011;64213;46.452;16.994;2023-10-31T15:55:29;2.70;;;0.40;;
75628;SDS011;64213;46.452;16.994;2023-10-31T15:58:31;2.92;;;0.20;;
75628;SDS011;64213;46.452;16.994;2023-10-31T16:01:34;2.85;;;0.30;;
75628;SDS011;64213;46.452;16.994;2023-10-31T16:04:37;3.13;;;0.40;;
75628;SDS011;64213;46.452;16.994;2023-10-31T16:07:41;1.63;;;0.20;;
75628;SDS011;64213;46.452;16.994;2023-10-31T16:10:44;3.50;;;0.40;;
75628;SDS011;64213;46.452;16.994;2023-10-31T16:13:46;2.55;;;0.22;;
75628;SDS011;64213;46.452;16.994;2023-10-31T16:16:49;2.87;;;0.37;;
75628;SDS011;64213;46.452;16.994;2023-10-31T16:19:51;3.27;;;0.57;;
75628;SDS011;64213;46.452;16.994;2023-10-31T16:22:54;4.83;;;0.60;;
75628;SDS011;64213;46.452;16.994;2023-10-31T16:25:57;2.65;;;0.32;;
75628;SDS011;64213;46.452;16.994;2023-10-31T16:29:00;5.18;;;0.70;;
75628;SDS011;64213;46.452;16.994;2023-10-31T16:32:03;2.22;;;0.40;;
75628;SDS011;64213;46.452;16.994;2023-10-31T16:35:07;4.80;;;0.40;;
75628;SDS011;64213;46.452;16.994;2023-10-31T16:38:10;5.27;;;0.50;;
75628;SDS011;64213;46.452;16.994;2023-10-31T16:41:12;3.67;;;0.50;;
75628;SDS011;64213;46.452;16.994;2023-10-31T16:44:15;5.78;;;0.40;;
75628;SDS011;64213;46.452;16.994;2023-10-31T16:47:17;2.30;;;0.30;;
75628;SDS011;64213;46.452;16.994;2023-10-31T16:50:20;2.93;;;0.40;;
75628;SDS011;64213;46.452;16.994;2023-10-31T16:53:23;2.80;;;0.30;;
75628;SDS011;64213;46.452;16.994;2023-10-31T16:56:25;2.67;;;0.50;;
75628;SDS011;64213;46.452;16.994;2023-10-31T16:59:28;4.62;;;1.12;;
75628;SDS011;64213;46.452;16.994;2023-10-31T17:02:30;5.62;;;0.60;;
75628;SDS011;64213;46.452;16.994;2023-10-31T17:05:33;4.67;;;0.63;;
75628;SDS011;64213;46.452;16.994;2023-10-31T17:08:35;3.90;;;0.60;;
75628;SDS011;64213;46.452;16.994;2023-10-31T17:11:38;2.85;;;0.30;;
75628;SDS011;64213;46.452;16.994;2023-10-31T17:14:40;3.25;;;0.50;;
75628;SDS011;64213;46.452;16.994;2023-10-31T17:17:43;6.75;;;1.00;;
75628;SDS011;64213;46.452;16.994;2023-10-31T17:20:46;8.60;;;1.63;;
75628;SDS011;64213;46.452;16.994;2023-10-31T17:23:50;6.33;;;1.40;;
75628;SDS011;64213;46.452;16.994;2023-10-31T17:26:52;7.37;;;1.37;;
75628;SDS011;64213;46.452;16.994;2023-10-31T17:29:55;5.78;;;1.02;;
75628;SDS011;64213;46.452;16.994;2023-10-31T17:32:57;6.22;;;1.30;;
75628;SDS011;64213;46.452;16.994;2023-10-31T17:35:59;6.80;;;1.40;;
75628;SDS011;64213;46.452;16.994;2023-10-31T17:39:02;7.77;;;1.90;;
75628;SDS011;64213;46.452;16.994;2023-10-31T17:42:05;8.68;;;2.78;;
75628;SDS011;64213;46.452;16.994;2023-10-31T17:45:08;7.25;;;2.15;;
75628;SDS011;64213;46.452;16.994;2023-10-31T17:48:11;9.48;;;2.20;;
75628;SDS011;64213;46.452;16.994;2023-10-31T17:51:14;6.97;;;2.13;;
75628;SDS011;64213;46.452;16.994;2023-10-31T17:54:16;6.47;;;1.60;;
75628;SDS011;64213;46.452;16.994;2023-10-31T17:57:21;6.72;;;1.20;;
75628;SDS011;64213;46.452;16.994;2023-10-31T18:00:27;5.72;;;1.12;;
75628;SDS011;64213;46.452;16.994;2023-10-31T18:03:29;6.55;;;1.48;;
75628;SDS011;64213;46.452;16.994;2023-10-31T18:06:32;7.70;;;1.60;;
75628;SDS011;64213;46.452;16.994;2023-10-31T18:09:35;7.33;;;1.60;;
75628;SDS011;64213;46.452;16.994;2023-10-31T18:12:38;5.95;;;1.05;;
75628;SDS011;64213;46.452;16.994;2023-10-31T18:15:41;7.10;;;1.65;;
75628;SDS011;64213;46.452;16.994;2023-10-31T18:18:44;8.10;;;2.08;;